Time;durP1;ratioP1;P1;durP2;ratioP2;P2;SDS_P1;SDS_P2;PMS_P1;PMS_P2;Temp;Humidity;BMP_temperature;BMP_pressure;BME280_temperature;BME280_humidity;BME280_pressure;Samples;Min_cycle;Max_cycle;Signal;HPM_P1;HPM_P2
2022/02/24 06:09:48;;;;;;;31.05;3.00;;;;;;;;;;5522351;23;20045;-84
2022/02/24 06:12:15;;;;;;;23.35;3.08;;;;;;;;;;4881687;29;20113;-85
2022/02/24 06:14:41;;;;;;;21.10;2.80;;;;;;;;;;4877511;29;20105;-84
2022/02/24 06:17:08;;;;;;;20.33;3.00;;;;;;;;;;4860202;29;20502;-86
2022/02/24 06:19:35;;;;;;;27.40;3.47;;;;;;;;;;4877558;29;20128;-84
2022/02/24 06:22:02;;;;;;;33.58;3.13;;;;;;;;;;4878252;29;20402;-85
2022/02/24 06:24:28;;;;;;;27.83;2.85;;;;;;;;;;4877793;29;20101;-85
2022/02/24 06:26:55;;;;;;;32.58;3.28;;;;;;;;;;4861492;29;20081;-85
2022/02/24 06:29:21;;;;;;;26.92;3.33;;;;;;;;;;4876955;29;20053;-85
2022/02/24 06:31:48;;;;;;;25.88;3.35;;;;;;;;;;4877705;29;20403;-85
2022/02/24 06:34:15;;;;;;;24.23;3.38;;;;;;;;;;4877281;29;20057;-85
2022/02/24 06:36:41;;;;;;;35.30;3.85;;;;;;;;;;4861620;29;20053;-85
2022/02/24 06:39:08;;;;;;;23.77;3.85;;;;;;;;;;4877515;29;20124;-85
2022/02/24 06:41:35;;;;;;;26.10;3.92;;;;;;;;;;4878174;29;20049;-85
2022/02/24 06:44:02;;;;;;;27.23;4.18;;;;;;;;;;4877895;29;20059;-85
2022/02/24 06:46:29;;;;;;;31.90;3.70;;;;;;;;;;4877372;29;20079;-85
2022/02/24 06:48:55;;;;;;;32.15;4.03;;;;;;;;;;4878240;29;20052;-85
2022/02/24 06:51:22;;;;;;;33.03;3.53;;;;;;;;;;4846183;29;20129;-85
2022/02/24 06:53:49;;;;;;;36.38;4.20;;;;;;;;;;4878276;29;20053;-84
2022/02/24 06:56:15;;;;;;;31.17;5.38;;;;;;;;;;4857929;29;20087;-84
2022/02/24 06:58:42;;;;;;;25.30;3.25;;;;;;;;;;4877547;29;20059;-85
2022/02/24 07:01:09;;;;;;;38.22;4.25;;;;;;;;;;4857968;29;20071;-86
2022/02/24 07:03:36;;;;;;;34.13;3.50;;;;;;;;;;4861396;29;20048;-85
2022/02/24 07:06:04;;;;;;;32.40;4.10;;;;;;;;;;4876937;29;20053;-84
2022/02/24 07:08:30;;;;;;;30.92;3.50;;;;;;;;;;4861096;29;20105;-85
2022/02/24 07:10:57;;;;;;;24.80;3.22;;;;;;;;;;4876983;29;20089;-85
2022/02/24 07:13:24;;;;;;;28.92;3.72;;;;;;;;;;4877107;29;20089;-84
2022/02/24 07:16:10;;;;;;;26.67;3.58;;;;;;;;;;4876419;29;20124;-84
2022/02/24 07:18:37;;;;;;;29.70;3.40;;;;;;;;;;4877470;29;20049;-84
2022/02/24 07:21:07;;;;;;;18.60;2.72;;;;;;;;;;4877178;29;20057;-84
2022/02/24 07:23:34;;;;;;;21.90;3.38;;;;;;;;;;4875608;29;20105;-84
2022/02/24 07:26:01;;;;;;;32.40;4.93;;;;;;;;;;4859805;29;20068;-84
2022/02/24 07:28:28;;;;;;;30.23;3.95;;;;;;;;;;4876395;29;20512;-84
2022/02/24 07:30:54;;;;;;;27.63;3.47;;;;;;;;;;4876729;29;20106;-84
2022/02/24 07:33:21;;;;;;;28.05;3.95;;;;;;;;;;4862621;29;20049;-84
2022/02/24 07:35:48;;;;;;;26.25;4.15;;;;;;;;;;4877231;29;20045;-84
2022/02/24 07:38:14;;;;;;;35.30;3.88;;;;;;;;;;4876298;29;20589;-84
2022/02/24 07:40:41;;;;;;;36.13;4.03;;;;;;;;;;4876671;29;20073;-85
2022/02/24 07:43:07;;;;;;;32.75;4.20;;;;;;;;;;4876322;29;20041;-85
2022/02/24 07:45:34;;;;;;;34.35;4.00;;;;;;;;;;4876915;29;20049;-85
2022/02/24 07:48:00;;;;;;;30.98;4.05;;;;;;;;;;4860934;29;20084;-86
2022/02/24 07:50:27;;;;;;;38.03;4.80;;;;;;;;;;4876626;29;20116;-85
2022/02/24 07:52:54;;;;;;;36.72;4.35;;;;;;;;;;4876578;29;20095;-85
2022/02/24 07:55:20;;;;;;;37.90;4.90;;;;;;;;;;4876293;29;20049;-86
2022/02/24 07:57:47;;;;;;;35.53;4.47;;;;;;;;;;4874397;29;20108;-84
2022/02/24 08:00:16;;;;;;;;;;;;;;;;;;4875302;29;20113;-85
2022/02/24 08:02:44;;;;;;;35.20;4.43;;;;;;;;;;4876387;29;19923;-85
2022/02/24 08:05:11;;;;;;;30.92;4.22;;;;;;;;;;4875823;29;20053;-85
2022/02/24 08:07:38;;;;;;;27.48;4.38;;;;;;;;;;4875990;29;20045;-86
2022/02/24 08:10:06;;;;;;;24.05;4.05;;;;;;;;;;4875142;29;20049;-84
2022/02/24 08:12:39;;;;;;;35.78;4.63;;;;;;;;;;4876093;29;20049;-85
2022/02/24 08:15:13;;;;;;;39.58;4.93;;;;;;;;;;4876074;29;20132;-85
2022/02/24 08:17:40;;;;;;;31.63;4.72;;;;;;;;;;4875270;29;20468;-85
2022/02/24 08:20:08;;;;;;;25.02;3.85;;;;;;;;;;4873358;29;20110;-86
2022/02/24 08:22:37;;;;;;;18.27;2.65;;;;;;;;;;4875217;29;20077;-86
2022/02/24 08:25:05;;;;;;;16.25;2.20;;;;;;;;;;4855190;29;20108;-84
2022/02/24 08:27:35;;;;;;;21.27;2.25;;;;;;;;;;4871654;29;20081;-85
2022/02/24 08:30:10;;;;;;;18.38;1.90;;;;;;;;;;4872219;29;20517;-86
2022/02/24 08:32:37;;;;;;;15.27;2.30;;;;;;;;;;4880584;29;20068;-86
2022/02/24 08:35:06;;;;;;;12.40;2.30;;;;;;;;;;4880633;29;20053;-87
2022/02/24 08:37:33;;;;;;;;;;;;;;;;;;4867079;29;20057;-89
2022/02/24 08:39:59;;;;;;;17.52;2.42;;;;;;;;;;4885185;29;19963;-91
2022/02/24 08:42:27;;;;;;;15.43;2.50;;;;;;;;;;4869475;29;20577;-89
2022/02/24 08:44:54;;;;;;;23.10;2.45;;;;;;;;;;4878040;29;20116;-90
2022/02/24 08:47:32;;;;;;;18.25;2.45;;;;;;;;;;4881433;29;20045;-88
2022/02/24 08:49:59;;;;;;;17.42;2.30;;;;;;;;;;4876654;29;20514;-88
2022/02/24 08:52:45;;;;;;;21.50;3.30;;;;;;;;;;4871681;29;20132;-87
2022/02/24 08:55:12;;;;;;;21.45;2.80;;;;;;;;;;4872342;29;20128;-88
2022/02/24 08:57:39;;;;;;;13.93;2.08;;;;;;;;;;4865401;29;20102;-87
2022/02/24 09:00:08;;;;;;;19.40;2.53;;;;;;;;;;4885599;29;20083;-86
2022/02/24 09:02:35;;;;;;;23.50;2.25;;;;;;;;;;4872726;29;20049;-86
2022/02/24 09:05:02;;;;;;;24.25;3.13;;;;;;;;;;4858093;29;20076;-85
2022/02/24 09:07:33;;;;;;;16.40;2.30;;;;;;;;;;4877866;29;20132;-84
2022/02/24 09:10:19;;;;;;;15.43;2.00;;;;;;;;;;4871267;29;20060;-86
2022/02/24 09:12:46;;;;;;;21.15;2.75;;;;;;;;;;4873054;29;20049;-86
2022/02/24 09:15:13;;;;;;;24.70;2.88;;;;;;;;;;4880748;29;20060;-87
2022/02/24 09:17:39;;;;;;;21.73;3.20;;;;;;;;;;4886038;29;20159;-86
2022/02/24 09:20:09;;;;;;;21.90;3.58;;;;;;;;;;4876344;29;20514;-86
2022/02/24 09:22:36;;;;;;;23.90;3.97;;;;;;;;;;4882748;29;20057;-87
2022/02/24 09:25:03;;;;;;;13.60;2.10;;;;;;;;;;4880688;29;20164;-87
2022/02/24 09:27:30;;;;;;;12.88;1.85;;;;;;;;;;4872193;29;20056;-86
2022/02/24 09:29:58;;;;;;;9.90;1.60;;;;;;;;;;4872352;29;20057;-87
2022/02/24 09:32:26;;;;;;;9.43;1.50;;;;;;;;;;4860272;29;20108;-86
2022/02/24 09:34:53;;;;;;;10.68;1.77;;;;;;;;;;4880196;29;20289;-86
2022/02/24 09:37:20;;;;;;;7.80;1.45;;;;;;;;;;4878575;29;20081;-87
2022/02/24 09:39:47;;;;;;;8.75;1.52;;;;;;;;;;4876684;29;20041;-88
2022/02/24 09:42:14;;;;;;;9.07;1.58;;;;;;;;;;4885969;29;20057;-86
2022/02/24 09:44:41;;;;;;;11.65;1.70;;;;;;;;;;4876854;29;20052;-86
2022/02/24 09:47:09;;;;;;;11.63;1.40;;;;;;;;;;4871838;29;20084;-86
2022/02/24 09:49:39;;;;;;;11.13;1.48;;;;;;;;;;4860286;29;20529;-86
2022/02/24 09:52:06;;;;;;;13.40;1.52;;;;;;;;;;4867092;29;20109;-86
2022/02/24 09:54:33;;;;;;;13.60;1.88;;;;;;;;;;4867386;29;20049;-86
2022/02/24 09:57:00;;;;;;;11.77;1.85;;;;;;;;;;4879662;29;20052;-87
2022/02/24 09:59:27;;;;;;;18.65;2.03;;;;;;;;;;4886323;29;20100;-87
2022/02/24 10:01:54;;;;;;;15.68;2.47;;;;;;;;;;4878404;29;20098;-85
2022/02/24 10:04:23;;;;;;;20.50;2.72;;;;;;;;;;4873039;29;20048;-88
2022/02/24 10:06:50;;;;;;;;;;;;;;;;;;4874684;29;20052;-84
2022/02/24 10:09:33;;;;;;;18.83;2.72;;;;;;;;;;4881169;29;19930;-84
2022/02/24 10:12:05;;;;;;;19.02;2.38;;;;;;;;;;4875106;29;20466;-85
2022/02/24 10:14:33;;;;;;;21.33;3.60;;;;;;;;;;4874751;29;20041;-87
2022/02/24 10:17:04;;;;;;;20.63;2.80;;;;;;;;;;4872641;29;20056;-85
2022/02/24 10:19:47;;;;;;;22.20;3.08;;;;;;;;;;4858649;29;20537;-87
2022/02/24 10:22:19;;;;;;;22.15;3.65;;;;;;;;;;4873429;29;20120;-86
2022/02/24 10:24:57;;;;;;;26.15;3.85;;;;;;;;;;4874333;29;20152;-87
2022/02/24 10:27:29;;;;;;;20.50;2.78;;;;;;;;;;4873958;29;20404;-86
2022/02/24 10:30:08;;;;;;;18.70;3.00;;;;;;;;;;4873045;29;20060;-88
2022/02/24 10:32:39;;;;;;;18.13;2.78;;;;;;;;;;4873393;29;20133;-84
2022/02/24 10:35:24;;;;;;;16.23;2.78;;;;;;;;;;4873560;29;20057;-83
2022/02/24 10:38:00;;;;;;;19.77;2.83;;;;;;;;;;4873748;29;20136;-85
2022/02/24 10:40:30;;;;;;;19.95;2.85;;;;;;;;;;4873191;29;20073;-85
2022/02/24 10:43:27;;;;;;;28.20;3.13;;;;;;;;;;4882889;29;20052;-85
2022/02/24 10:46:04;;;;;;;17.77;2.85;;;;;;;;;;4868009;29;20049;-85
2022/02/24 10:48:45;;;;;;;23.90;3.42;;;;;;;;;;4875374;29;20049;-88
2022/02/24 10:51:12;;;;;;;29.20;3.80;;;;;;;;;;4875474;29;20053;-86
2022/02/24 10:53:38;;;;;;;18.63;2.65;;;;;;;;;;4886909;29;20053;-87
2022/02/24 10:56:10;;;;;;;18.05;3.33;;;;;;;;;;4869534;29;20112;-85
2022/02/24 10:58:46;;;;;;;25.88;3.72;;;;;;;;;;4877095;29;20462;-87
2022/02/24 11:01:20;;;;;;;30.17;3.97;;;;;;;;;;4867595;29;20497;-87
2022/02/24 11:03:55;;;;;;;33.05;3.58;;;;;;;;;;4877533;29;20522;-86
2022/02/24 11:06:24;;;;;;;34.08;4.32;;;;;;;;;;4876354;29;20521;-88
2022/02/24 11:08:53;;;;;;;33.30;4.15;;;;;;;;;;4884269;29;20132;-86
2022/02/24 11:11:28;;;;;;;23.42;3.50;;;;;;;;;;4877166;29;20061;-89
2022/02/24 11:13:59;;;;;;;20.65;2.90;;;;;;;;;;4871312;29;20056;-90
2022/02/24 11:16:28;;;;;;;29.90;4.15;;;;;;;;;;4874793;29;20125;-87
2022/02/24 11:18:59;;;;;;;36.47;4.53;;;;;;;;;;4873984;29;20136;-87
2022/02/24 11:21:28;;;;;;;41.38;5.40;;;;;;;;;;4878832;29;20057;-87
2022/02/24 11:23:56;;;;;;;23.55;3.92;;;;;;;;;;4877671;29;20113;-86
2022/02/24 11:26:22;;;;;;;31.52;4.05;;;;;;;;;;4873096;29;20072;-87
2022/02/24 11:29:31;;;;;;;27.13;4.30;;;;;;;;;;4877184;29;20516;-87
2022/02/24 11:32:09;;;;;;;34.08;5.22;;;;;;;;;;4869284;29;20053;-87
2022/02/24 11:34:54;;;;;;;31.95;5.35;;;;;;;;;;4859491;29;20052;-86
2022/02/24 11:37:26;;;;;;;29.17;3.50;;;;;;;;;;4862592;29;20057;-88
2022/02/24 11:40:03;;;;;;;25.02;3.47;;;;;;;;;;4873249;29;20049;-88
2022/02/24 11:42:31;;;;;;;18.40;2.63;;;;;;;;;;4868190;29;20184;-86
2022/02/24 11:44:59;;;;;;;16.50;3.60;;;;;;;;;;4873956;29;20061;-86
2022/02/24 11:47:26;;;;;;;16.58;2.45;;;;;;;;;;4872989;29;20371;-85
2022/02/24 11:49:53;;;;;;;16.95;2.72;;;;;;;;;;4872332;29;20080;-85
2022/02/24 11:52:20;;;;;;;17.02;2.78;;;;;;;;;;4872176;29;20068;-84
2022/02/24 11:54:47;;;;;;;19.88;3.00;;;;;;;;;;4873572;29;20052;-86
2022/02/24 11:57:30;;;;;;;27.02;3.33;;;;;;;;;;4888646;29;20060;-84
2022/02/24 12:00:11;;;;;;;13.30;2.00;;;;;;;;;;4877583;29;20045;-85
2022/02/24 12:02:45;;;;;;;19.05;2.67;;;;;;;;;;4884469;29;20077;-85
2022/02/24 12:05:29;;;;;;;13.60;2.20;;;;;;;;;;4875772;29;20063;-85
2022/02/24 12:08:03;;;;;;;14.23;2.35;;;;;;;;;;4870152;29;20129;-85
2022/02/24 12:10:43;;;;;;;20.95;2.63;;;;;;;;;;4876805;29;20099;-84
2022/02/24 12:13:25;;;;;;;11.55;1.98;;;;;;;;;;4880283;29;20049;-83
2022/02/24 12:16:11;;;;;;;19.45;2.58;;;;;;;;;;4872445;29;20569;-84
2022/02/24 12:18:39;;;;;;;16.67;2.83;;;;;;;;;;4869255;29;20045;-86
2022/02/24 12:21:31;;;;;;;19.65;2.90;;;;;;;;;;4877293;29;20052;-86
2022/02/24 12:24:01;;;;;;;18.17;2.40;;;;;;;;;;4882485;29;20423;-87
2022/02/24 12:26:40;;;;;;;18.50;3.00;;;;;;;;;;4872314;29;20145;-89
2022/02/24 12:29:37;;;;;;;13.30;2.00;;;;;;;;;;4883200;29;20048;-87
2022/02/24 12:32:06;;;;;;;16.83;2.80;;;;;;;;;;4878655;29;20045;-84
2022/02/24 12:34:34;;;;;;;17.30;2.92;;;;;;;;;;4878997;29;20073;-90
2022/02/24 12:37:09;;;;;;;15.00;2.65;;;;;;;;;;4876006;29;20132;-92
2022/02/24 12:39:38;;;;;;;14.45;2.35;;;;;;;;;;4871181;29;20057;-87
2022/02/24 12:42:07;;;;;;;18.05;2.58;;;;;;;;;;4871857;29;20057;-86
2022/02/24 12:44:35;;;;;;;23.65;2.78;;;;;;;;;;4882110;29;20045;-88
2022/02/24 12:47:05;;;;;;;20.23;2.72;;;;;;;;;;4872382;29;20052;-88
2022/02/24 12:49:45;;;;;;;20.88;3.88;;;;;;;;;;4879780;29;20049;-89
2022/02/24 12:52:18;;;;;;;29.75;3.40;;;;;;;;;;4853774;29;20057;-89
2022/02/24 12:54:45;;;;;;;24.80;2.22;;;;;;;;;;4887030;29;20053;-89
2022/02/24 12:57:13;;;;;;;21.00;3.72;;;;;;;;;;4879903;29;20087;-91
2022/02/24 12:59:42;;;;;;;13.38;2.42;;;;;;;;;;4875301;29;20053;-89
2022/02/24 13:02:09;;;;;;;15.57;2.20;;;;;;;;;;4873733;29;20550;-90
2022/02/24 13:04:38;;;;;;;18.13;2.50;;;;;;;;;;4861241;29;20049;-88
2022/02/24 13:07:05;;;;;;;16.23;2.80;;;;;;;;;;4873121;29;20125;-85
2022/02/24 13:09:44;;;;;;;14.48;2.20;;;;;;;;;;4857633;29;20147;-89
2022/02/24 13:12:14;;;;;;;14.98;2.50;;;;;;;;;;4873659;29;20461;-86
2022/02/24 13:14:48;;;;;;;19.20;3.10;;;;;;;;;;4870793;29;20108;-88
2022/02/24 13:17:25;;;;;;;20.23;2.95;;;;;;;;;;4873460;29;20500;-87
2022/02/24 13:19:52;;;;;;;29.13;3.42;;;;;;;;;;4860160;29;20080;-86
2022/02/24 13:22:22;;;;;;;20.75;3.22;;;;;;;;;;4876293;29;20143;-87
2022/02/24 13:24:49;;;;;;;22.13;3.05;;;;;;;;;;4880536;29;20470;-86
2022/02/24 13:27:21;;;;;;;26.27;4.07;;;;;;;;;;4876402;29;20060;-87
2022/02/24 13:29:51;;;;;;;19.98;2.67;;;;;;;;;;4880562;29;20087;-87
2022/02/24 13:32:28;;;;;;;19.20;2.90;;;;;;;;;;4875647;29;20093;-88
2022/02/24 13:34:57;;;;;;;29.17;3.25;;;;;;;;;;4864198;29;20113;-86
2022/02/24 13:37:38;;;;;;;28.90;3.03;;;;;;;;;;4863399;29;20049;-87
2022/02/24 13:40:10;;;;;;;18.02;2.95;;;;;;;;;;4876004;29;20048;-83
2022/02/24 13:42:38;;;;;;;23.63;3.75;;;;;;;;;;4869040;29;20105;-88
2022/02/24 13:45:11;;;;;;;29.30;5.05;;;;;;;;;;4876787;29;20053;-89
2022/02/24 13:47:39;;;;;;;30.67;3.67;;;;;;;;;;4875472;29;20064;-89
2022/02/24 13:50:06;;;;;;;25.50;3.20;;;;;;;;;;4875019;29;20084;-87
2022/02/24 13:52:37;;;;;;;25.00;3.42;;;;;;;;;;4875039;29;20068;-86
2022/02/24 13:55:12;;;;;;;16.63;2.63;;;;;;;;;;4878885;29;20135;-88
2022/02/24 13:57:52;;;;;;;22.60;2.83;;;;;;;;;;4875742;29;20109;-89
2022/02/24 14:00:25;;;;;;;18.67;2.58;;;;;;;;;;4872732;29;20077;-88
2022/02/24 14:02:54;;;;;;;16.80;2.67;;;;;;;;;;4885377;29;20044;-88
2022/02/24 14:05:21;;;;;;;17.17;2.67;;;;;;;;;;4880083;29;20052;-89
2022/02/24 14:07:49;;;;;;;18.85;2.55;;;;;;;;;;4861913;29;20063;-88
2022/02/24 14:10:18;;;;;;;24.33;3.13;;;;;;;;;;4875029;29;20112;-89
2022/02/24 14:12:45;;;;;;;19.15;3.05;;;;;;;;;;4862751;29;20298;-89
2022/02/24 14:15:12;;;;;;;17.15;3.15;;;;;;;;;;4886321;29;20053;-88
2022/02/24 14:17:40;;;;;;;22.60;3.33;;;;;;;;;;4884453;29;20068;-89
2022/02/24 14:20:24;;;;;;;22.63;3.55;;;;;;;;;;4881438;29;20056;-86
2022/02/24 14:22:52;;;;;;;27.98;3.85;;;;;;;;;;4878073;29;20053;-88
2022/02/24 14:25:19;;;;;;;23.20;3.63;;;;;;;;;;4878843;29;20057;-87
2022/02/24 14:27:46;;;;;;;21.63;3.08;;;;;;;;;;4859838;29;20056;-87
2022/02/24 14:30:14;;;;;;;22.50;3.95;;;;;;;;;;4856796;29;20048;-88
2022/02/24 14:32:41;;;;;;;29.25;4.50;;;;;;;;;;4880135;29;20569;-87
2022/02/24 14:35:09;;;;;;;31.38;4.13;;;;;;;;;;4863338;29;20056;-90
2022/02/24 14:37:36;;;;;;;21.15;4.07;;;;;;;;;;4886803;29;20048;-89
2022/02/24 14:40:06;;;;;;;23.25;4.05;;;;;;;;;;4884684;29;20100;-90
2022/02/24 14:42:38;;;;;;;16.42;3.22;;;;;;;;;;4885651;29;20166;-90
2022/02/24 14:45:07;;;;;;;19.55;2.88;;;;;;;;;;4885174;29;20049;-84
2022/02/24 14:47:33;;;;;;;24.90;3.35;;;;;;;;;;4884930;29;20152;-87
2022/02/24 14:50:00;;;;;;;23.10;2.90;;;;;;;;;;4893213;29;20049;-88
2022/02/24 14:52:27;;;;;;;15.85;2.60;;;;;;;;;;4891243;29;20079;-89
2022/02/24 14:54:53;;;;;;;18.05;3.15;;;;;;;;;;4888509;29;20057;-91
2022/02/24 14:57:21;;;;;;;20.77;3.28;;;;;;;;;;4889858;29;20049;-88
2022/02/24 14:59:48;;;;;;;17.40;3.00;;;;;;;;;;4876330;29;20171;-89
2022/02/24 15:02:16;;;;;;;24.77;3.55;;;;;;;;;;4875843;29;20053;-89
2022/02/24 15:05:03;;;;;;;15.40;2.28;;;;;;;;;;4881816;29;20068;-89
2022/02/24 15:07:29;;;;;;;16.90;2.42;;;;;;;;;;4865998;29;20071;-90
2022/02/24 15:09:56;;;;;;;18.23;2.80;;;;;;;;;;4874781;29;20475;-90
2022/02/24 15:12:35;;;;;;;21.00;2.50;;;;;;;;;;4884978;29;20574;-88
2022/02/24 15:15:03;;;;;;;20.45;2.72;;;;;;;;;;4866192;29;20068;-88
2022/02/24 15:17:36;;;;;;;16.30;2.10;;;;;;;;;;4884661;29;20173;-89
2022/02/24 15:20:05;;;;;;;15.82;2.13;;;;;;;;;;4866034;29;20044;-88
2022/02/24 15:22:34;;;;;;;9.15;1.92;;;;;;;;;;4878471;29;20051;-88
2022/02/24 15:25:02;;;;;;;12.93;1.85;;;;;;;;;;4875120;29;20072;-89
2022/02/24 15:27:28;;;;;;;20.42;2.78;;;;;;;;;;4856920;29;20076;-88
2022/02/24 15:29:55;;;;;;;11.73;2.00;;;;;;;;;;4890117;29;20049;-89
2022/02/24 15:32:23;;;;;;;11.00;2.15;;;;;;;;;;4875892;29;20112;-88
2022/02/24 15:34:50;;;;;;;15.20;2.00;;;;;;;;;;4885880;29;20053;-89
2022/02/24 15:37:19;;;;;;;;;;;;;;;;;;4857107;29;20668;-88
2022/02/24 15:39:46;;;;;;;13.65;2.13;;;;;;;;;;4858806;29;19928;-87
2022/02/24 15:42:13;;;;;;;13.07;1.90;;;;;;;;;;4862654;29;20053;-89
2022/02/24 15:44:40;;;;;;;17.90;2.10;;;;;;;;;;4870915;29;20485;-90
2022/02/24 15:47:06;;;;;;;15.93;1.77;;;;;;;;;;4863386;29;20060;-90
2022/02/24 15:49:55;;;;;;;17.25;3.13;;;;;;;;;;4869443;29;20076;-88
2022/02/24 15:52:25;;;;;;;17.70;2.55;;;;;;;;;;4881584;29;20053;-89
2022/02/24 15:54:52;;;;;;;12.88;1.73;;;;;;;;;;4875163;29;20104;-86
2022/02/24 15:57:19;;;;;;;20.38;2.20;;;;;;;;;;4874689;29;20391;-88
2022/02/24 15:59:45;;;;;;;16.65;1.90;;;;;;;;;;4889553;29;20085;-87
2022/02/24 16:02:14;;;;;;;20.77;1.83;;;;;;;;;;4877158;29;20161;-87
2022/02/24 16:04:41;;;;;;;11.77;1.42;;;;;;;;;;4879756;29;20049;-87
2022/02/24 16:07:08;;;;;;;17.35;2.00;;;;;;;;;;4873187;29;20109;-88
2022/02/24 16:09:41;;;;;;;15.93;2.10;;;;;;;;;;4878309;29;20147;-87
2022/02/24 16:12:08;;;;;;;17.60;2.33;;;;;;;;;;4887807;29;20072;-88
2022/02/24 16:14:35;;;;;;;21.30;2.28;;;;;;;;;;4865605;29;20048;-90
2022/02/24 16:17:02;;;;;;;13.85;1.60;;;;;;;;;;4887948;29;20518;-89
2022/02/24 16:19:29;;;;;;;12.95;1.58;;;;;;;;;;4878996;29;20494;-86
2022/02/24 16:21:57;;;;;;;15.60;1.80;;;;;;;;;;4879507;29;20075;-87
2022/02/24 16:24:24;;;;;;;14.18;1.65;;;;;;;;;;4883482;29;20139;-89
2022/02/24 16:26:51;;;;;;;10.30;1.58;;;;;;;;;;4888424;29;20597;-88
2022/02/24 16:29:18;;;;;;;18.52;2.38;;;;;;;;;;4857312;29;20281;-87
2022/02/24 16:31:46;;;;;;;16.42;2.20;;;;;;;;;;4873540;29;20061;-86
2022/02/24 16:34:26;;;;;;;17.83;2.13;;;;;;;;;;4872268;29;20061;-85
2022/02/24 16:36:54;;;;;;;17.65;2.60;;;;;;;;;;4882953;29;20060;-89
2022/02/24 16:39:21;;;;;;;16.80;2.22;;;;;;;;;;4871986;29;20109;-86
2022/02/24 16:41:48;;;;;;;15.98;2.92;;;;;;;;;;4875237;29;20061;-88
2022/02/24 16:44:15;;;;;;;14.07;2.10;;;;;;;;;;4875502;29;20075;-86
2022/02/24 16:46:42;;;;;;;19.23;2.13;;;;;;;;;;4876450;29;20045;-87
2022/02/24 16:49:09;;;;;;;13.90;2.05;;;;;;;;;;4873445;29;20044;-86
2022/02/24 16:51:38;;;;;;;13.50;1.98;;;;;;;;;;4872860;29;20057;-86
2022/02/24 16:54:05;;;;;;;7.70;1.42;;;;;;;;;;4881685;29;20570;-85
2022/02/24 16:56:32;;;;;;;10.57;1.38;;;;;;;;;;4873290;29;20822;-85
2022/02/24 16:59:19;;;;;;;9.30;1.40;;;;;;;;;;4875773;29;20078;-87
2022/02/24 17:01:46;;;;;;;9.88;1.48;;;;;;;;;;4875409;29;20931;-86
2022/02/24 17:04:17;;;;;;;8.60;1.23;;;;;;;;;;4876644;29;20518;-87
2022/02/24 17:06:45;;;;;;;7.35;1.17;;;;;;;;;;4869301;29;20168;-87
2022/02/24 17:09:12;;;;;;;10.15;1.40;;;;;;;;;;4879530;29;20092;-88
2022/02/24 17:11:42;;;;;;;11.93;1.35;;;;;;;;;;4877918;29;20439;-84
2022/02/24 17:14:10;;;;;;;11.20;2.30;;;;;;;;;;4876744;29;20102;-85
2022/02/24 17:16:37;;;;;;;8.47;1.63;;;;;;;;;;4880939;29;20164;-87
2022/02/24 17:19:04;;;;;;;11.40;1.52;;;;;;;;;;4878294;29;20490;-82
2022/02/24 17:21:31;;;;;;;9.18;1.42;;;;;;;;;;4878210;29;20065;-86
2022/02/24 17:23:59;;;;;;;14.85;2.17;;;;;;;;;;4886695;29;20135;-88
2022/02/24 17:26:26;;;;;;;13.18;2.38;;;;;;;;;;4877843;29;20777;-88
2022/02/24 17:28:52;;;;;;;16.83;2.13;;;;;;;;;;4878245;29;20061;-87
2022/02/24 17:31:19;;;;;;;17.13;2.88;;;;;;;;;;4858177;29;20577;-86
2022/02/24 17:33:46;;;;;;;16.05;1.90;;;;;;;;;;4871091;29;20063;-87
2022/02/24 17:36:13;;;;;;;10.68;2.13;;;;;;;;;;4872914;29;20056;-87
2022/02/24 17:38:40;;;;;;;19.65;2.45;;;;;;;;;;4878540;29;20059;-87
2022/02/24 17:41:07;;;;;;;14.98;2.15;;;;;;;;;;4864909;29;20112;-86
2022/02/24 17:43:33;;;;;;;15.95;3.08;;;;;;;;;;4888116;29;20108;-86
2022/02/24 17:46:02;;;;;;;20.05;3.45;;;;;;;;;;4887136;29;20049;-86
2022/02/24 17:48:30;;;;;;;10.77;2.38;;;;;;;;;;4859397;29;20050;-91
2022/02/24 17:50:57;;;;;;;21.20;3.03;;;;;;;;;;4880217;29;20470;-84
2022/02/24 17:53:24;;;;;;;18.50;5.38;;;;;;;;;;4876652;29;20052;-86
2022/02/24 17:55:53;;;;;;;17.75;2.80;;;;;;;;;;4876000;29;20064;-88
2022/02/24 17:58:20;;;;;;;19.05;2.35;;;;;;;;;;4873371;29;20079;-88
2022/02/24 18:00:46;;;;;;;17.13;2.40;;;;;;;;;;4875466;29;20061;-90
2022/02/24 18:03:13;;;;;;;16.75;2.00;;;;;;;;;;4860415;29;20430;-90
2022/02/24 18:05:41;;;;;;;20.73;4.93;;;;;;;;;;4876710;29;20093;-91
2022/02/24 18:08:09;;;;;;;12.63;2.63;;;;;;;;;;4875261;29;20073;-88
2022/02/24 18:10:36;;;;;;;18.20;2.70;;;;;;;;;;4856546;29;20414;-89
2022/02/24 18:13:03;;;;;;;18.25;3.38;;;;;;;;;;4860739;29;20105;-88
2022/02/24 18:15:29;;;;;;;26.35;6.22;;;;;;;;;;4885561;29;20954;-87
2022/02/24 18:17:58;;;;;;;21.17;4.68;;;;;;;;;;4877769;29;20467;-88
2022/02/24 18:20:24;;;;;;;30.23;11.30;;;;;;;;;;4879460;29;20056;-87
2022/02/24 18:22:51;;;;;;;19.67;2.53;;;;;;;;;;4865233;29;20056;-88
2022/02/24 18:25:18;;;;;;;20.55;2.30;;;;;;;;;;4873434;29;20077;-88
2022/02/24 18:27:45;;;;;;;19.95;3.20;;;;;;;;;;4879011;29;20411;-89
2022/02/24 18:30:12;;;;;;;25.90;8.38;;;;;;;;;;4874106;29;20574;-88
2022/02/24 18:32:39;;;;;;;24.42;6.47;;;;;;;;;;4877931;29;20514;-87
2022/02/24 18:35:06;;;;;;;17.92;3.88;;;;;;;;;;4876550;29;20044;-87
2022/02/24 18:37:33;;;;;;;24.80;5.40;;;;;;;;;;4863930;29;20134;-89
2022/02/24 18:40:05;;;;;;;36.38;11.73;;;;;;;;;;4887219;29;20047;-89
2022/02/24 18:42:32;;;;;;;45.28;19.73;;;;;;;;;;4858098;29;20080;-89
2022/02/24 18:44:59;;;;;;;19.40;4.25;;;;;;;;;;4877983;29;20086;-90
2022/02/24 18:47:26;;;;;;;16.27;2.65;;;;;;;;;;4881677;29;20077;-91
2022/02/24 18:49:52;;;;;;;16.50;2.28;;;;;;;;;;4879010;29;20114;-90
2022/02/24 18:52:19;;;;;;;18.10;2.20;;;;;;;;;;4879655;29;20049;-89
2022/02/24 18:54:46;;;;;;;18.50;2.22;;;;;;;;;;4877499;29;20115;-93
2022/02/24 18:57:14;;;;;;;17.77;2.53;;;;;;;;;;4873958;29;20072;-91
2022/02/24 18:59:41;;;;;;;19.35;4.28;;;;;;;;;;4881719;29;20224;-88
2022/02/24 19:02:09;;;;;;;19.15;2.92;;;;;;;;;;4872687;29;20144;-87
2022/02/24 19:04:36;;;;;;;13.55;2.85;;;;;;;;;;4877559;29;20124;-88
2022/02/24 19:07:05;;;;;;;17.63;2.92;;;;;;;;;;4876288;29;20048;-86
2022/02/24 19:09:47;;;;;;;15.48;3.17;;;;;;;;;;4869495;29;20049;-87
2022/02/24 19:12:15;;;;;;;20.15;2.90;;;;;;;;;;4877868;29;20117;-86
2022/02/24 19:14:42;;;;;;;21.40;4.25;;;;;;;;;;4887145;29;20163;-89
2022/02/24 19:17:08;;;;;;;21.25;4.93;;;;;;;;;;4876510;29;20053;-87
2022/02/24 19:19:36;;;;;;;44.00;9.68;;;;;;;;;;4873971;29;20056;-88
2022/02/24 19:22:03;;;;;;;31.90;5.82;;;;;;;;;;4876224;29;20845;-85
2022/02/24 19:24:30;;;;;;;25.63;4.43;;;;;;;;;;4870976;29;20057;-85
2022/02/24 19:26:57;;;;;;;27.08;4.38;;;;;;;;;;4879183;29;20052;-86
2022/02/24 19:29:23;;;;;;;25.33;4.40;;;;;;;;;;4874197;29;20061;-86
2022/02/24 19:31:50;;;;;;;22.23;4.20;;;;;;;;;;4871803;29;20124;-87
2022/02/24 19:34:17;;;;;;;27.70;4.68;;;;;;;;;;4873275;29;20075;-88
2022/02/24 19:36:44;;;;;;;18.20;3.20;;;;;;;;;;4873073;29;20088;-87
2022/02/24 19:39:11;;;;;;;19.65;3.15;;;;;;;;;;4878791;29;20067;-90
2022/02/24 19:41:41;;;;;;;19.17;4.50;;;;;;;;;;4871629;29;20498;-86
2022/02/24 19:44:07;;;;;;;25.40;3.67;;;;;;;;;;4872277;29;20459;-85
2022/02/24 19:46:36;;;;;;;32.75;6.20;;;;;;;;;;4876698;29;20048;-84
2022/02/24 19:49:03;;;;;;;31.10;5.10;;;;;;;;;;4882306;29;20045;-83
2022/02/24 19:51:29;;;;;;;21.17;4.85;;;;;;;;;;4873259;29;20128;-82
2022/02/24 19:53:56;;;;;;;17.67;3.33;;;;;;;;;;4873481;29;20056;-83
2022/02/24 19:56:25;;;;;;;22.00;3.60;;;;;;;;;;4872344;29;20093;-82
2022/02/24 19:58:51;;;;;;;18.80;2.90;;;;;;;;;;4873321;29;20105;-84
2022/02/24 20:01:18;;;;;;;18.38;3.25;;;;;;;;;;4872502;29;20045;-83
2022/02/24 20:03:45;;;;;;;26.75;3.15;;;;;;;;;;4872374;29;20430;-83
2022/02/24 20:06:12;;;;;;;21.00;3.08;;;;;;;;;;4871065;29;20156;-83
2022/02/24 20:08:41;;;;;;;22.08;3.42;;;;;;;;;;4879788;29;20144;-83
2022/02/24 20:11:07;;;;;;;19.42;3.05;;;;;;;;;;4879299;29;20056;-84
2022/02/24 20:13:35;;;;;;;21.38;3.35;;;;;;;;;;4855211;29;20048;-83
2022/02/24 20:16:03;;;;;;;17.88;3.13;;;;;;;;;;4880506;29;20131;-84
2022/02/24 20:18:30;;;;;;;17.98;2.63;;;;;;;;;;4883736;29;20210;-83
2022/02/24 20:20:57;;;;;;;21.75;2.40;;;;;;;;;;4873390;29;20093;-82
2022/02/24 20:23:23;;;;;;;23.75;2.72;;;;;;;;;;4872616;29;20076;-82
2022/02/24 20:25:50;;;;;;;21.42;2.60;;;;;;;;;;4875876;29;20083;-84
2022/02/24 20:28:20;;;;;;;24.38;2.92;;;;;;;;;;4880608;29;20064;-82
2022/02/24 20:30:48;;;;;;;22.55;2.95;;;;;;;;;;4872694;29;20053;-82
2022/02/24 20:33:15;;;;;;;25.92;2.95;;;;;;;;;;4855378;29;20060;-84
2022/02/24 20:35:41;;;;;;;20.73;3.17;;;;;;;;;;4873427;29;20552;-82
2022/02/24 20:38:11;;;;;;;23.90;3.33;;;;;;;;;;4880693;29;20685;-83
2022/02/24 20:40:38;;;;;;;13.80;2.30;;;;;;;;;;4878254;29;20053;-81
2022/02/24 20:43:05;;;;;;;24.45;3.22;;;;;;;;;;4872105;29;20048;-83
2022/02/24 20:45:32;;;;;;;15.57;3.20;;;;;;;;;;4872507;29;20049;-84
2022/02/24 20:48:00;;;;;;;17.08;3.40;;;;;;;;;;4881465;29;20083;-83
2022/02/24 20:50:26;;;;;;;26.48;3.42;;;;;;;;;;4872574;29;20120;-80
2022/02/24 20:52:53;;;;;;;18.10;4.05;;;;;;;;;;4872702;29;20052;-82